To NAV CANADA Home Page Login to a new session Search on AWWS site Feedback and Comments Disclaimer Vers la page française équivalente Tips FAQ What's new on the site To the Forecasts and Observations / NOTAM section To "File a Flight Plan" website Publications and other links Update of the User's profile FIC Telephone Numbers My Weather Data Folder Route Weather Data Regional Weather Data Local Weather Data To the Forecasts and Observations / NOTAM section
Request Generated 05/25/2015 at 21:13:03 UTC . Weather information available at that time is displayed.

METAR/TAF

KINDERSLEY/KINDERSLEY REGIONAL/SK    

METAR CYKY 252100Z VRB02KT 15SM SCT050 BKN100 26/M00 A2984 RMK SC4AC1
SLP103 DENSITY ALT 4100FT=
METAR CYKY 252000Z 15004KT 050V170 15SM SCT050TCU BKN100 25/M02 A2985
RMK TCU4AC1 SLP102 DENSITY ALT 4000FT=
METAR CYKY 251900Z 10011KT 080V190 15SM BKN048TCU 25/01 A2986 RMK
TCU6 VIRGA ALL QUADS SLP106 DENSITY ALT 4000FT=

CYKY - No TAF is issued for this station

Your time UTC time
Weather data provided by Environment Canada and NAV CANADA